sensor_id;sensor_type;location;lat;lon;timestamp;pressure;altitude;pressure_sealevel;temperature;humidity
18985;BME280;9626;52.552;13.436;2023-08-30T00:00:57;100198.38;;;14.48;100.00
18985;BME280;9626;52.552;13.436;2023-08-30T00:03:23;100192.56;;;14.38;100.00
18985;BME280;9626;52.552;13.436;2023-08-30T00:05:49;100189.81;;;14.41;100.00
18985;BME280;9626;52.552;13.436;2023-08-30T00:08:15;100189.91;;;14.38;100.00
18985;BME280;9626;52.552;13.436;2023-08-30T00:10:45;100195.63;;;14.29;100.00
18985;BME280;9626;52.552;13.436;2023-08-30T00:13:11;100200.78;;;14.33;100.00
18985;BME280;9626;52.552;13.436;2023-08-30T00:15:38;100203.38;;;14.35;100.00
18985;BME280;9626;52.552;13.436;2023-08-30T00:18:04;100199.63;;;14.39;100.00
18985;BME280;9626;52.552;13.436;2023-08-30T00:20:30;100199.94;;;14.33;100.00
18985;BME280;9626;52.552;13.436;2023-08-30T00:22:56;100198.13;;;14.33;100.00
18985;BME280;9626;52.552;13.436;2023-08-30T00:25:22;100194.59;;;14.33;100.00
18985;BME280;9626;52.552;13.436;2023-08-30T00:27:48;100194.78;;;14.28;100.00
18985;BME280;9626;52.552;13.436;2023-08-30T00:30:14;100192.31;;;14.24;100.00
18985;BME280;9626;52.552;13.436;2023-08-30T00:32:40;100188.78;;;14.23;100.00
18985;BME280;9626;52.552;13.436;2023-08-30T00:35:10;100186.31;;;14.18;100.00
18985;BME280;9626;52.552;13.436;2023-08-30T00:37:36;100189.19;;;14.14;100.00
18985;BME280;9626;52.552;13.436;2023-08-30T00:40:02;100185.84;;;14.09;100.00
18985;BME280;9626;52.552;13.436;2023-08-30T00:42:32;100190.28;;;14.08;100.00
18985;BME280;9626;52.552;13.436;2023-08-30T00:44:58;100191.97;;;14.11;100.00
18985;BME280;9626;52.552;13.436;2023-08-30T00:47:24;100181.06;;;14.17;100.00
18985;BME280;9626;52.552;13.436;2023-08-30T00:49:50;100188.06;;;14.19;100.00
18985;BME280;9626;52.552;13.436;2023-08-30T00:52:16;100170.56;;;14.14;100.00
18985;BME280;9626;52.552;13.436;2023-08-30T00:54:43;100177.72;;;14.12;100.00
18985;BME280;9626;52.552;13.436;2023-08-30T00:57:09;100167.81;;;14.15;100.00
18985;BME280;9626;52.552;13.436;2023-08-30T00:59:35;100172.63;;;14.28;100.00
18985;BME280;9626;52.552;13.436;2023-08-30T01:02:02;100174.41;;;14.27;100.00
18985;BME280;9626;52.552;13.436;2023-08-30T01:04:28;100184.13;;;14.28;100.00
18985;BME280;9626;52.552;13.436;2023-08-30T01:06:54;100177.47;;;14.18;100.00
18985;BME280;9626;52.552;13.436;2023-08-30T01:09:20;100177.88;;;14.09;100.00
18985;BME280;9626;52.552;13.436;2023-08-30T01:12:09;100188.75;;;14.02;100.00
18985;BME280;9626;52.552;13.436;2023-08-30T01:14:44;100188.16;;;13.96;100.00
18985;BME280;9626;52.552;13.436;2023-08-30T01:17:13;100198.13;;;13.91;100.00
18985;BME280;9626;52.552;13.436;2023-08-30T01:19:51;100205.31;;;13.89;100.00
18985;BME280;9626;52.552;13.436;2023-08-30T01:25:17;100206.28;;;13.86;100.00
18985;BME280;9626;52.552;13.436;2023-08-30T01:27:47;100206.22;;;13.88;100.00
18985;BME280;9626;52.552;13.436;2023-08-30T01:30:14;100198.19;;;13.89;100.00
18985;BME280;9626;52.552;13.436;2023-08-30T01:32:42;100198.25;;;13.88;100.00
18985;BME280;9626;52.552;13.436;2023-08-30T01:35:09;100212.31;;;13.91;100.00
18985;BME280;9626;52.552;13.436;2023-08-30T01:37:36;100208.72;;;13.92;100.00
18985;BME280;9626;52.552;13.436;2023-08-30T01:40:04;100207.84;;;13.92;100.00
18985;BME280;9626;52.552;13.436;2023-08-30T01:42:31;100196.19;;;13.94;100.00
18985;BME280;9626;52.552;13.436;2023-08-30T01:44:59;100211.31;;;13.94;100.00
18985;BME280;9626;52.552;13.436;2023-08-30T01:47:27;100212.16;;;13.94;100.00
18985;BME280;9626;52.552;13.436;2023-08-30T01:49:55;100214.81;;;13.94;100.00
18985;BME280;9626;52.552;13.436;2023-08-30T01:52:23;100216.78;;;13.91;100.00
18985;BME280;9626;52.552;13.436;2023-08-30T01:54:51;100221.13;;;13.92;100.00
18985;BME280;9626;52.552;13.436;2023-08-30T01:57:17;100228.19;;;13.93;100.00
18985;BME280;9626;52.552;13.436;2023-08-30T01:59:43;100229.03;;;13.95;100.00
18985;BME280;9626;52.552;13.436;2023-08-30T02:02:10;100225.53;;;13.93;100.00
18985;BME280;9626;52.552;13.436;2023-08-30T02:04:36;100221.97;;;13.94;100.00
18985;BME280;9626;52.552;13.436;2023-08-30T02:07:03;100213.09;;;13.93;100.00
18985;BME280;9626;52.552;13.436;2023-08-30T02:12:11;100202.13;;;14.01;100.00
18985;BME280;9626;52.552;13.436;2023-08-30T02:14:39;100206.78;;;13.96;100.00
18985;BME280;9626;52.552;13.436;2023-08-30T02:17:07;100205.06;;;13.95;100.00
18985;BME280;9626;52.552;13.436;2023-08-30T02:19:34;100211.31;;;13.94;100.00
18985;BME280;9626;52.552;13.436;2023-08-30T02:22:00;100216.38;;;14.00;100.00
18985;BME280;9626;52.552;13.436;2023-08-30T02:24:26;100214.66;;;13.99;100.00
18985;BME280;9626;52.552;13.436;2023-08-30T02:26:52;100212.00;;;13.99;100.00
18985;BME280;9626;52.552;13.436;2023-08-30T02:29:18;100210.25;;;13.98;100.00
18985;BME280;9626;52.552;13.436;2023-08-30T02:31:44;100209.84;;;13.86;100.00
18985;BME280;9626;52.552;13.436;2023-08-30T02:34:10;100207.03;;;13.90;100.00
18985;BME280;9626;52.552;13.436;2023-08-30T02:36:36;100211.53;;;13.88;100.00
18985;BME280;9626;52.552;13.436;2023-08-30T02:39:02;100211.31;;;13.94;100.00
18985;BME280;9626;52.552;13.436;2023-08-30T02:41:29;100202.00;;;14.04;100.00
18985;BME280;9626;52.552;13.436;2023-08-30T02:43:55;100198.94;;;13.93;100.00
18985;BME280;9626;52.552;13.436;2023-08-30T02:46:21;100194.28;;;13.98;100.00
18985;BME280;9626;52.552;13.436;2023-08-30T02:48:47;100203.13;;;13.98;100.00
18985;BME280;9626;52.552;13.436;2023-08-30T02:51:13;100204.25;;;13.93;100.00
18985;BME280;9626;52.552;13.436;2023-08-30T02:53:39;100203.56;;;13.88;100.00
18985;BME280;9626;52.552;13.436;2023-08-30T02:56:05;100192.38;;;13.79;100.00
18985;BME280;9626;52.552;13.436;2023-08-30T02:58:31;100193.56;;;13.72;100.00
18985;BME280;9626;52.552;13.436;2023-08-30T03:00:57;100185.81;;;13.66;100.00
18985;BME280;9626;52.552;13.436;2023-08-30T03:03:23;100173.56;;;13.62;100.00
18985;BME280;9626;52.552;13.436;2023-08-30T03:05:49;100171.88;;;13.59;100.00
18985;BME280;9626;52.552;13.436;2023-08-30T03:08:15;100170.34;;;13.53;100.00
18985;BME280;9626;52.552;13.436;2023-08-30T03:10:41;100169.50;;;13.53;100.00
18985;BME280;9626;52.552;13.436;2023-08-30T03:13:07;100159.06;;;13.48;100.00
18985;BME280;9626;52.552;13.436;2023-08-30T03:15:33;100164.41;;;13.47;100.00
18985;BME280;9626;52.552;13.436;2023-08-30T03:18:00;100172.56;;;13.42;100.00
18985;BME280;9626;52.552;13.436;2023-08-30T03:20:26;100166.56;;;13.37;100.00
18985;BME280;9626;52.552;13.436;2023-08-30T03:22:56;100163.00;;;13.38;100.00
18985;BME280;9626;52.552;13.436;2023-08-30T03:25:22;100160.53;;;13.32;100.00
18985;BME280;9626;52.552;13.436;2023-08-30T03:27:48;100161.53;;;13.29;100.00
18985;BME280;9626;52.552;13.436;2023-08-30T03:30:14;100171.13;;;13.33;100.00
18985;BME280;9626;52.552;13.436;2023-08-30T03:32:40;100170.38;;;13.30;100.00
18985;BME280;9626;52.552;13.436;2023-08-30T03:35:06;100165.84;;;13.32;100.00
18985;BME280;9626;52.552;13.436;2023-08-30T03:37:34;100172.06;;;13.32;100.00
18985;BME280;9626;52.552;13.436;2023-08-30T03:40:00;100176.59;;;13.29;100.00
18985;BME280;9626;52.552;13.436;2023-08-30T03:42:26;100188.16;;;13.28;100.00
18985;BME280;9626;52.552;13.436;2023-08-30T03:44:54;100188.28;;;13.25;100.00
18985;BME280;9626;52.552;13.436;2023-08-30T03:47:23;100185.63;;;13.25;100.00
18985;BME280;9626;52.552;13.436;2023-08-30T03:49:49;100182.28;;;13.19;100.00
18985;BME280;9626;52.552;13.436;2023-08-30T03:52:15;100181.19;;;13.25;100.00
18985;BME280;9626;52.552;13.436;2023-08-30T03:54:41;100184.84;;;13.23;100.00
18985;BME280;9626;52.552;13.436;2023-08-30T03:57:07;100188.41;;;13.22;100.00
18985;BME280;9626;52.552;13.436;2023-08-30T03:59:33;100192.81;;;13.23;100.00
18985;BME280;9626;52.552;13.436;2023-08-30T04:01:59;100199.13;;;13.20;100.00
18985;BME280;9626;52.552;13.436;2023-08-30T04:04:26;100194.72;;;13.19;100.00
18985;BME280;9626;52.552;13.436;2023-08-30T04:06:52;100193.59;;;13.25;100.00
18985;BME280;9626;52.552;13.436;2023-08-30T04:09:18;100191.72;;;13.28;100.00
18985;BME280;9626;52.552;13.436;2023-08-30T04:11:44;100187.38;;;13.26;100.00
18985;BME280;9626;52.552;13.436;2023-08-30T04:14:10;100185.75;;;13.22;100.00
18985;BME280;9626;52.552;13.436;2023-08-30T04:16:36;100192.75;;;13.24;100.00
18985;BME280;9626;52.552;13.436;2023-08-30T04:19:02;100190.09;;;13.24;100.00
18985;BME280;9626;52.552;13.436;2023-08-30T04:21:28;100185.63;;;13.25;100.00
18985;BME280;9626;52.552;13.436;2023-08-30T04:23:53;100184.72;;;13.26;100.00
18985;BME280;9626;52.552;13.436;2023-08-30T04:26:19;100189.97;;;13.27;100.00
18985;BME280;9626;52.552;13.436;2023-08-30T04:28:45;100195.97;;;13.32;100.00
18985;BME280;9626;52.552;13.436;2023-08-30T04:31:11;100199.31;;;13.39;100.00
18985;BME280;9626;52.552;13.436;2023-08-30T04:33:39;100198.31;;;13.42;100.00
18985;BME280;9626;52.552;13.436;2023-08-30T04:36:05;100207.97;;;13.44;100.00
18985;BME280;9626;52.552;13.436;2023-08-30T04:38:31;100211.50;;;13.45;100.00
18985;BME280;9626;52.552;13.436;2023-08-30T04:40:58;100207.97;;;13.44;100.00
18985;BME280;9626;52.552;13.436;2023-08-30T04:43:25;100215.88;;;13.46;100.00
18985;BME280;9626;52.552;13.436;2023-08-30T04:45:51;100212.19;;;13.50;100.00
18985;BME280;9626;52.552;13.436;2023-08-30T04:48:17;100218.34;;;13.50;100.00
18985;BME280;9626;52.552;13.436;2023-08-30T04:50:43;100213.94;;;13.49;100.00
18985;BME280;9626;52.552;13.436;2023-08-30T04:53:09;100215.81;;;13.47;100.00
18985;BME280;9626;52.552;13.436;2023-08-30T04:55:35;100216.31;;;13.57;100.00
18985;BME280;9626;52.552;13.436;2023-08-30T04:58:01;100205.75;;;13.56;100.00
18985;BME280;9626;52.552;13.436;2023-08-30T05:00:27;100206.47;;;13.59;100.00
18985;BME280;9626;52.552;13.436;2023-08-30T05:02:53;100198.56;;;13.58;100.00
18985;BME280;9626;52.552;13.436;2023-08-30T05:05:19;100211.78;;;13.59;100.00
18985;BME280;9626;52.552;13.436;2023-08-30T05:07:45;100215.13;;;13.64;100.00
18985;BME280;9626;52.552;13.436;2023-08-30T05:10:11;100214.22;;;13.65;100.00
18985;BME280;9626;52.552;13.436;2023-08-30T05:12:38;100220.34;;;13.67;100.00
18985;BME280;9626;52.552;13.436;2023-08-30T05:15:04;100218.34;;;13.73;100.00
18985;BME280;9626;52.552;13.436;2023-08-30T05:17:31;100224.44;;;13.76;100.00
18985;BME280;9626;52.552;13.436;2023-08-30T05:19:57;100220.72;;;13.80;100.00
18985;BME280;9626;52.552;13.436;2023-08-30T05:22:23;100221.47;;;13.84;100.00
18985;BME280;9626;52.552;13.436;2023-08-30T05:24:49;100222.19;;;13.88;100.00
18985;BME280;9626;52.552;13.436;2023-08-30T05:27:15;100218.59;;;13.89;100.00
18985;BME280;9626;52.552;13.436;2023-08-30T05:29:42;100224.69;;;13.92;100.00
18985;BME280;9626;52.552;13.436;2023-08-30T05:32:08;100224.34;;;14.00;100.00
18985;BME280;9626;52.552;13.436;2023-08-30T05:34:37;100210.81;;;14.06;100.00
18985;BME280;9626;52.552;13.436;2023-08-30T05:37:03;100215.84;;;14.12;100.00
18985;BME280;9626;52.552;13.436;2023-08-30T05:39:29;100211.06;;;14.20;100.00
18985;BME280;9626;52.552;13.436;2023-08-30T05:41:55;100205.44;;;14.28;100.00
18985;BME280;9626;52.552;13.436;2023-08-30T05:44:21;100202.59;;;14.33;100.00
18985;BME280;9626;52.552;13.436;2023-08-30T05:46:47;100204.03;;;14.40;100.00
18985;BME280;9626;52.552;13.436;2023-08-30T05:49:13;100192.50;;;14.40;100.00
18985;BME280;9626;52.552;13.436;2023-08-30T05:51:39;100199.72;;;14.37;100.00
18985;BME280;9626;52.552;13.436;2023-08-30T05:54:05;100192.66;;;14.36;100.00
18985;BME280;9626;52.552;13.436;2023-08-30T05:56:31;100187.47;;;14.33;100.00
18985;BME280;9626;52.552;13.436;2023-08-30T05:58:57;100195.53;;;14.32;100.00
18985;BME280;9626;52.552;13.436;2023-08-30T06:01:23;100201.63;;;14.34;100.00
18985;BME280;9626;52.552;13.436;2023-08-30T06:03:50;100205.78;;;14.41;100.00
18985;BME280;9626;52.552;13.436;2023-08-30T06:06:16;100191.50;;;14.42;100.00
18985;BME280;9626;52.552;13.436;2023-08-30T06:08:42;100197.50;;;14.47;100.00
18985;BME280;9626;52.552;13.436;2023-08-30T06:11:08;100185.72;;;14.53;100.00
18985;BME280;9626;52.552;13.436;2023-08-30T06:13:34;100183.72;;;14.58;100.00
18985;BME280;9626;52.552;13.436;2023-08-30T06:16:00;100179.75;;;14.68;100.00
18985;BME280;9626;52.552;13.436;2023-08-30T06:18:29;100179.53;;;14.73;100.00
18985;BME280;9626;52.552;13.436;2023-08-30T06:20:56;100182.72;;;14.81;100.00
18985;BME280;9626;52.552;13.436;2023-08-30T06:23:22;100192.97;;;14.91;100.00
18985;BME280;9626;52.552;13.436;2023-08-30T06:25:57;100190.22;;;14.92;100.00
18985;BME280;9626;52.552;13.436;2023-08-30T06:28:24;100182.09;;;14.95;100.00
18985;BME280;9626;52.552;13.436;2023-08-30T06:31:12;100180.81;;;15.04;100.00
18985;BME280;9626;52.552;13.436;2023-08-30T06:33:38;100180.00;;;15.02;100.00
18985;BME280;9626;52.552;13.436;2023-08-30T06:36:05;100180.94;;;15.01;100.00
18985;BME280;9626;52.552;13.436;2023-08-30T06:38:31;100178.16;;;15.04;100.00
18985;BME280;9626;52.552;13.436;2023-08-30T06:41:00;100184.19;;;15.08;100.00
18985;BME280;9626;52.552;13.436;2023-08-30T06:43:28;100184.84;;;15.13;100.00
18985;BME280;9626;52.552;13.436;2023-08-30T06:45:57;100184.66;;;15.17;100.00
18985;BME280;9626;52.552;13.436;2023-08-30T06:48:25;100182.03;;;15.16;100.00
18985;BME280;9626;52.552;13.436;2023-08-30T06:50:50;100181.16;;;15.15;100.00
18985;BME280;9626;52.552;13.436;2023-08-30T06:53:16;100180.91;;;15.21;100.00
18985;BME280;9626;52.552;13.436;2023-08-30T06:55:42;100178.06;;;15.25;100.00
18985;BME280;9626;52.552;13.436;2023-08-30T06:58:09;100174.47;;;15.26;100.00
18985;BME280;9626;52.552;13.436;2023-08-30T07:00:35;100177.56;;;15.35;100.00
18985;BME280;9626;52.552;13.436;2023-08-30T07:03:00;100176.41;;;15.41;100.00
18985;BME280;9626;52.552;13.436;2023-08-30T07:05:26;100169.91;;;15.47;100.00
18985;BME280;9626;52.552;13.436;2023-08-30T07:07:52;100175.97;;;15.50;100.00
18985;BME280;9626;52.552;13.436;2023-08-30T07:10:18;100167.72;;;15.55;100.00
18985;BME280;9626;52.552;13.436;2023-08-30T07:12:44;100172.91;;;15.58;100.00
18985;BME280;9626;52.552;13.436;2023-08-30T07:15:14;100171.13;;;15.59;100.00
18985;BME280;9626;52.552;13.436;2023-08-30T07:17:42;100174.81;;;15.56;100.00
18985;BME280;9626;52.552;13.436;2023-08-30T07:20:09;100169.31;;;15.59;100.00
18985;BME280;9626;52.552;13.436;2023-08-30T07:22:36;100171.78;;;15.64;100.00
18985;BME280;9626;52.552;13.436;2023-08-30T07:25:02;100166.13;;;15.70;100.00
18985;BME280;9626;52.552;13.436;2023-08-30T07:27:28;100160.50;;;15.76;100.00
18985;BME280;9626;52.552;13.436;2023-08-30T07:29:54;100156.59;;;15.83;100.00
18985;BME280;9626;52.552;13.436;2023-08-30T07:32:20;100160.75;;;15.89;100.00
18985;BME280;9626;52.552;13.436;2023-08-30T07:34:46;100160.59;;;15.92;100.00
18985;BME280;9626;52.552;13.436;2023-08-30T07:37:21;100166.19;;;15.87;100.00
18985;BME280;9626;52.552;13.436;2023-08-30T07:39:48;100168.03;;;15.85;100.00
18985;BME280;9626;52.552;13.436;2023-08-30T07:42:14;100166.03;;;15.91;100.00
18985;BME280;9626;52.552;13.436;2023-08-30T07:44:41;100171.19;;;15.94;100.00
18985;BME280;9626;52.552;13.436;2023-08-30T07:47:07;100176.53;;;15.94;100.00
18985;BME280;9626;52.552;13.436;2023-08-30T07:49:33;100172.78;;;15.98;100.00
18985;BME280;9626;52.552;13.436;2023-08-30T07:51:59;100167.44;;;15.98;100.00
18985;BME280;9626;52.552;13.436;2023-08-30T07:54:25;100173.56;;;16.00;100.00
18985;BME280;9626;52.552;13.436;2023-08-30T07:56:50;100184.97;;;16.03;100.00
18985;BME280;9626;52.552;13.436;2023-08-30T07:59:16;100179.56;;;16.05;100.00
18985;BME280;9626;52.552;13.436;2023-08-30T08:01:42;100184.09;;;16.03;100.00
18985;BME280;9626;52.552;13.436;2023-08-30T08:04:08;100178.66;;;16.04;100.00
18985;BME280;9626;52.552;13.436;2023-08-30T08:06:34;100173.28;;;16.06;100.00
18985;BME280;9626;52.552;13.436;2023-08-30T08:09:01;100167.84;;;16.08;100.00
18985;BME280;9626;52.552;13.436;2023-08-30T08:11:27;100168.53;;;16.11;100.00
18985;BME280;9626;52.552;13.436;2023-08-30T08:13:53;100170.13;;;16.15;100.00
18985;BME280;9626;52.552;13.436;2023-08-30T08:16:19;100171.59;;;16.21;100.00
18985;BME280;9626;52.552;13.436;2023-08-30T08:18:46;100174.81;;;16.28;100.00
18985;BME280;9626;52.552;13.436;2023-08-30T08:21:12;100173.88;;;16.29;100.00
18985;BME280;9626;52.552;13.436;2023-08-30T08:23:38;100182.84;;;16.28;100.00
18985;BME280;9626;52.552;13.436;2023-08-30T08:26:03;100176.38;;;16.32;100.00
18985;BME280;9626;52.552;13.436;2023-08-30T08:28:29;100178.28;;;16.30;100.00
18985;BME280;9626;52.552;13.436;2023-08-30T08:30:55;100177.50;;;16.28;100.00
18985;BME280;9626;52.552;13.436;2023-08-30T08:33:21;100173.72;;;16.32;100.00
18985;BME280;9626;52.552;13.436;2023-08-30T08:35:49;100182.44;;;16.35;100.00
18985;BME280;9626;52.552;13.436;2023-08-30T08:38:15;100174.19;;;16.40;100.00
18985;BME280;9626;52.552;13.436;2023-08-30T08:40:41;100168.63;;;16.45;100.00
18985;BME280;9626;52.552;13.436;2023-08-30T08:43:10;100167.59;;;16.47;100.00
18985;BME280;9626;52.552;13.436;2023-08-30T08:45:37;100167.19;;;16.55;100.00
18985;BME280;9626;52.552;13.436;2023-08-30T08:48:06;100166.94;;;16.60;100.00
18985;BME280;9626;52.552;13.436;2023-08-30T08:50:32;100161.97;;;16.69;100.00
18985;BME280;9626;52.552;13.436;2023-08-30T08:53:00;100165.66;;;16.67;100.00
18985;BME280;9626;52.552;13.436;2023-08-30T08:55:28;100162.16;;;16.82;100.00
18985;BME280;9626;52.552;13.436;2023-08-30T08:57:56;100161.69;;;16.92;100.00
18985;BME280;9626;52.552;13.436;2023-08-30T09:00:24;100159.38;;;17.01;100.00
18985;BME280;9626;52.552;13.436;2023-08-30T09:02:50;100164.31;;;17.09;100.00
18985;BME280;9626;52.552;13.436;2023-08-30T09:05:18;100158.88;;;17.11;100.00
18985;BME280;9626;52.552;13.436;2023-08-30T09:07:48;100158.63;;;17.31;100.00
18985;BME280;9626;52.552;13.436;2023-08-30T09:10:17;100161.31;;;17.47;100.00
18985;BME280;9626;52.552;13.436;2023-08-30T09:12:42;100160.50;;;17.61;100.00
18985;BME280;9626;52.552;13.436;2023-08-30T09:15:09;100157.81;;;17.77;100.00
18985;BME280;9626;52.552;13.436;2023-08-30T09:17:36;100145.69;;;18.02;100.00
18985;BME280;9626;52.552;13.436;2023-08-30T09:20:09;100154.13;;;18.10;100.00
18985;BME280;9626;52.552;13.436;2023-08-30T09:22:40;100153.84;;;18.00;100.00
18985;BME280;9626;52.552;13.436;2023-08-30T09:25:08;100145.75;;;18.16;100.00
18985;BME280;9626;52.552;13.436;2023-08-30T09:27:35;100139.75;;;18.41;100.00
18985;BME280;9626;52.552;13.436;2023-08-30T09:30:05;100140.44;;;18.45;100.00
18985;BME280;9626;52.552;13.436;2023-08-30T09:32:39;100144.06;;;17.99;100.00
18985;BME280;9626;52.552;13.436;2023-08-30T09:35:05;100147.03;;;17.63;100.00
18985;BME280;9626;52.552;13.436;2023-08-30T09:37:31;100152.06;;;17.53;100.00
18985;BME280;9626;52.552;13.436;2023-08-30T09:39:57;100145.78;;;17.54;100.00
18985;BME280;9626;52.552;13.436;2023-08-30T09:42:23;100150.50;;;17.65;100.00
18985;BME280;9626;52.552;13.436;2023-08-30T09:44:50;100138.91;;;17.80;100.00
18985;BME280;9626;52.552;13.436;2023-08-30T09:47:16;100146.78;;;17.83;100.00
18985;BME280;9626;52.552;13.436;2023-08-30T09:49:44;100139.31;;;18.04;100.00
18985;BME280;9626;52.552;13.436;2023-08-30T09:52:14;100139.75;;;18.27;100.00
18985;BME280;9626;52.552;13.436;2023-08-30T09:54:41;100149.63;;;18.55;100.00
18985;BME280;9626;52.552;13.436;2023-08-30T09:57:10;100146.56;;;18.62;100.00
18985;BME280;9626;52.552;13.436;2023-08-30T09:59:37;100136.69;;;18.62;100.00
18985;BME280;9626;52.552;13.436;2023-08-30T10:02:03;100134.41;;;18.70;100.00
18985;BME280;9626;52.552;13.436;2023-08-30T10:04:31;100134.13;;;18.89;100.00
18985;BME280;9626;52.552;13.436;2023-08-30T10:06:58;100133.00;;;18.94;100.00
18985;BME280;9626;52.552;13.436;2023-08-30T10:09:25;100131.94;;;18.96;100.00
18985;BME280;9626;52.552;13.436;2023-08-30T10:11:51;100127.41;;;19.11;100.00
18985;BME280;9626;52.552;13.436;2023-08-30T10:14:18;100130.66;;;19.16;93.02
18985;BME280;9626;52.552;13.436;2023-08-30T10:16:45;100133.03;;;19.21;92.61
18985;BME280;9626;52.552;13.436;2023-08-30T10:19:25;100128.81;;;19.31;93.42
18985;BME280;9626;52.552;13.436;2023-08-30T10:22:06;100122.59;;;19.31;95.08
18985;BME280;9626;52.552;13.436;2023-08-30T10:24:43;100120.72;;;19.46;92.64
18985;BME280;9626;52.552;13.436;2023-08-30T10:27:10;100116.69;;;19.66;93.23
18985;BME280;9626;52.552;13.436;2023-08-30T10:29:38;100119.00;;;19.72;89.57
18985;BME280;9626;52.552;13.436;2023-08-30T10:32:05;100111.34;;;19.66;95.68
18985;BME280;9626;52.552;13.436;2023-08-30T10:34:33;100116.56;;;19.54;95.94
18985;BME280;9626;52.552;13.436;2023-08-30T10:37:00;100120.19;;;19.26;96.43
18985;BME280;9626;52.552;13.436;2023-08-30T10:39:39;100125.03;;;19.06;96.50
18985;BME280;9626;52.552;13.436;2023-08-30T10:42:15;100131.63;;;19.15;93.58
18985;BME280;9626;52.552;13.436;2023-08-30T10:44:59;100132.72;;;19.40;93.46
18985;BME280;9626;52.552;13.436;2023-08-30T10:47:30;100130.19;;;19.51;98.15
18985;BME280;9626;52.552;13.436;2023-08-30T10:50:00;100130.19;;;19.51;93.47
18985;BME280;9626;52.552;13.436;2023-08-30T10:52:27;100137.34;;;19.38;92.88
18985;BME280;9626;52.552;13.436;2023-08-30T10:55:06;100128.47;;;19.50;97.91
18985;BME280;9626;52.552;13.436;2023-08-30T10:57:34;100120.44;;;19.63;100.00
18985;BME280;9626;52.552;13.436;2023-08-30T11:00:11;100131.38;;;19.47;84.42
18985;BME280;9626;52.552;13.436;2023-08-30T11:02:44;100133.00;;;19.50;87.26
18985;BME280;9626;52.552;13.436;2023-08-30T11:05:12;100135.03;;;19.59;86.75
18985;BME280;9626;52.552;13.436;2023-08-30T11:07:38;100129.59;;;19.88;86.93
18985;BME280;9626;52.552;13.436;2023-08-30T11:10:05;100130.13;;;19.93;85.27
18985;BME280;9626;52.552;13.436;2023-08-30T11:12:32;100137.69;;;20.01;86.73
18985;BME280;9626;52.552;13.436;2023-08-30T11:14:58;100131.34;;;20.02;85.50
18985;BME280;9626;52.552;13.436;2023-08-30T11:17:26;100120.75;;;20.26;86.83
18985;BME280;9626;52.552;13.436;2023-08-30T11:19:58;100134.44;;;19.96;81.69
18985;BME280;9626;52.552;13.436;2023-08-30T11:22:30;100136.16;;;19.84;77.25
18985;BME280;9626;52.552;13.436;2023-08-30T11:24:56;100142.81;;;19.64;76.64
18985;BME280;9626;52.552;13.436;2023-08-30T11:27:23;100131.25;;;19.49;84.61
18985;BME280;9626;52.552;13.436;2023-08-30T11:29:49;100137.28;;;19.52;84.20
18985;BME280;9626;52.552;13.436;2023-08-30T11:32:16;100132.81;;;19.66;80.92
18985;BME280;9626;52.552;13.436;2023-08-30T11:34:42;100125.78;;;19.77;89.09
18985;BME280;9626;52.552;13.436;2023-08-30T11:37:08;100127.56;;;19.91;82.59
18985;BME280;9626;52.552;13.436;2023-08-30T11:39:34;100124.34;;;19.99;87.82
18985;BME280;9626;52.552;13.436;2023-08-30T11:42:03;100126.72;;;20.04;77.96
18985;BME280;9626;52.552;13.436;2023-08-30T11:44:31;100132.13;;;20.17;80.28
18985;BME280;9626;52.552;13.436;2023-08-30T11:47:00;100128.16;;;20.22;84.63
18985;BME280;9626;52.552;13.436;2023-08-30T11:49:28;100120.94;;;20.10;90.56
18985;BME280;9626;52.552;13.436;2023-08-30T11:51:55;100123.63;;;20.10;84.81
18985;BME280;9626;52.552;13.436;2023-08-30T11:54:23;100129.50;;;19.89;82.23
18985;BME280;9626;52.552;13.436;2023-08-30T11:56:50;100128.31;;;19.66;81.74
18985;BME280;9626;52.552;13.436;2023-08-30T11:59:22;100120.53;;;19.49;81.63
18985;BME280;9626;52.552;13.436;2023-08-30T12:01:49;100120.09;;;19.55;80.29
18985;BME280;9626;52.552;13.436;2023-08-30T12:04:15;100125.38;;;19.56;80.83
18985;BME280;9626;52.552;13.436;2023-08-30T12:06:41;100113.56;;;19.59;82.72
18985;BME280;9626;52.552;13.436;2023-08-30T12:09:13;100109.31;;;19.69;87.15
18985;BME280;9626;52.552;13.436;2023-08-30T12:11:39;100109.75;;;19.76;89.65
18985;BME280;9626;52.552;13.436;2023-08-30T12:14:05;100117.03;;;19.74;83.00
18985;BME280;9626;52.552;13.436;2023-08-30T12:16:31;100117.03;;;19.74;76.76
18985;BME280;9626;52.552;13.436;2023-08-30T12:19:07;100116.19;;;19.88;75.94
18985;BME280;9626;52.552;13.436;2023-08-30T12:21:42;100111.22;;;19.95;73.15
18985;BME280;9626;52.552;13.436;2023-08-30T12:24:09;100114.44;;;19.87;76.68
18985;BME280;9626;52.552;13.436;2023-08-30T12:26:35;100117.88;;;19.89;73.62
18985;BME280;9626;52.552;13.436;2023-08-30T12:29:05;100103.59;;;19.88;74.58
18985;BME280;9626;52.552;13.436;2023-08-30T12:31:32;100112.09;;;19.95;69.08
18985;BME280;9626;52.552;13.436;2023-08-30T12:33:58;100112.72;;;19.99;70.11
18985;BME280;9626;52.552;13.436;2023-08-30T12:36:24;100110.38;;;19.94;68.47
18985;BME280;9626;52.552;13.436;2023-08-30T12:38:50;100106.28;;;19.88;71.05
18985;BME280;9626;52.552;13.436;2023-08-30T12:41:16;100100.19;;;19.72;74.07
18985;BME280;9626;52.552;13.436;2023-08-30T12:43:43;100099.75;;;19.78;76.11
18985;BME280;9626;52.552;13.436;2023-08-30T12:46:09;100098.34;;;19.72;74.44
18985;BME280;9626;52.552;13.436;2023-08-30T12:48:35;100100.59;;;19.66;73.93